Time;durP1;ratioP1;P1;durP2;ratioP2;P2;SDS_P1;SDS_P2;PMS_P1;PMS_P2;Temp;Humidity;BMP_temperature;BMP_pressure;BME280_temperature;BME280_humidity;BME280_pressure;Samples;Min_cycle;Max_cycle;Signal;HPM_P1;HPM_P2
2023/03/05 00:00:00;;;;;;;49.97;12.40;;;;;;;;;;5014463;28;20434;-39
2023/03/05 00:02:27;;;;;;;44.70;11.75;;;;;;;;;;5026593;28;20394;-39
2023/03/05 00:04:54;;;;;;;43.08;11.95;;;;;;;;;;5013970;28;20040;-40
2023/03/05 00:07:21;;;;;;;40.67;10.82;;;;;;;;;;5021303;28;20513;-40
2023/03/05 00:09:49;;;;;;;42.40;10.68;;;;;;;;;;5005883;28;20060;-40
2023/03/05 00:12:16;;;;;;;43.15;11.50;;;;;;;;;;5021122;28;20073;-39
2023/03/05 00:14:42;;;;;;;51.33;13.57;;;;;;;;;;5018868;28;20076;-41
2023/03/05 00:17:09;;;;;;;128.30;28.10;;;;;;;;;;5029757;28;20474;-40
2023/03/05 00:19:39;;;;;;;235.13;58.50;;;;;;;;;;5019972;28;20064;-40
2023/03/05 00:22:06;;;;;;;226.18;55.95;;;;;;;;;;5019795;28;20113;-39
2023/03/05 00:24:33;;;;;;;199.68;51.33;;;;;;;;;;5019372;28;20029;-40
2023/03/05 00:27:00;;;;;;;158.20;42.67;;;;;;;;;;5014186;28;20120;-40
2023/03/05 00:29:27;;;;;;;140.63;40.63;;;;;;;;;;5015545;28;20080;-40
2023/03/05 00:31:54;;;;;;;150.60;37.33;;;;;;;;;;5022640;28;20763;-40
2023/03/05 00:34:22;;;;;;;134.50;36.05;;;;;;;;;;4999944;28;20021;-40
2023/03/05 00:36:50;;;;;;;140.52;36.20;;;;;;;;;;5022078;28;20431;-39
2023/03/05 00:39:18;;;;;;;163.35;37.67;;;;;;;;;;5019074;28;20022;-39
2023/03/05 00:41:45;;;;;;;141.35;34.83;;;;;;;;;;5028493;28;20025;-40
2023/03/05 00:44:12;;;;;;;133.50;32.80;;;;;;;;;;5032609;28;20029;-40
2023/03/05 00:46:39;;;;;;;131.40;34.35;;;;;;;;;;5032993;28;20630;-40
2023/03/05 00:49:06;;;;;;;135.32;32.40;;;;;;;;;;5033120;28;20053;-40
2023/03/05 00:51:33;;;;;;;113.38;31.42;;;;;;;;;;5032810;28;20033;-40
2023/03/05 00:54:00;;;;;;;110.03;30.50;;;;;;;;;;5032802;28;20097;-40
2023/03/05 00:56:27;;;;;;;116.43;30.98;;;;;;;;;;5032718;28;20017;-40
2023/03/05 00:58:54;;;;;;;117.97;30.00;;;;;;;;;;5032522;28;20454;-40
2023/03/05 01:01:22;;;;;;;120.05;30.45;;;;;;;;;;5032738;28;20048;-40
2023/03/05 01:03:48;;;;;;;129.13;30.55;;;;;;;;;;5032616;28;20553;-40
2023/03/05 01:06:16;;;;;;;116.10;29.88;;;;;;;;;;5032641;28;20026;-40
2023/03/05 01:08:43;;;;;;;117.75;30.60;;;;;;;;;;5032602;28;20423;-40
2023/03/05 01:11:11;;;;;;;114.57;29.27;;;;;;;;;;5032531;28;20037;-40
2023/03/05 01:13:38;;;;;;;128.63;30.00;;;;;;;;;;5032003;28;20076;-40
2023/03/05 01:16:05;;;;;;;122.50;28.98;;;;;;;;;;5032451;28;20049;-40
2023/03/05 01:18:32;;;;;;;113.50;30.02;;;;;;;;;;5032231;28;20051;-40
2023/03/05 01:20:59;;;;;;;116.05;30.45;;;;;;;;;;5032350;28;20038;-40
2023/03/05 01:23:27;;;;;;;128.57;30.92;;;;;;;;;;5032118;28;20108;-40
2023/03/05 01:25:58;;;;;;;108.68;28.20;;;;;;;;;;5032332;28;20049;-40
2023/03/05 01:28:25;;;;;;;114.03;29.75;;;;;;;;;;5032196;28;20037;-40
2023/03/05 01:30:52;;;;;;;114.95;28.80;;;;;;;;;;5031930;28;20079;-40
2023/03/05 01:33:20;;;;;;;124.22;30.80;;;;;;;;;;5032064;28;20104;-40
2023/03/05 01:35:48;;;;;;;119.10;27.90;;;;;;;;;;5032149;28;20064;-41
2023/03/05 01:38:15;;;;;;;100.05;29.10;;;;;;;;;;5031853;28;20030;-40
2023/03/05 01:40:42;;;;;;;101.30;27.75;;;;;;;;;;5032010;28;20029;-40
2023/03/05 01:43:12;;;;;;;103.65;29.48;;;;;;;;;;5031710;28;20513;-40
2023/03/05 01:45:59;;;;;;;120.85;29.95;;;;;;;;;;5031918;28;20037;-40
2023/03/05 01:48:26;;;;;;;107.75;29.17;;;;;;;;;;5031845;28;20026;-40
2023/03/05 01:50:53;;;;;;;105.40;28.45;;;;;;;;;;5031407;28;20034;-39
2023/03/05 01:53:20;;;;;;;126.50;29.73;;;;;;;;;;5031347;28;20029;-39
2023/03/05 01:55:47;;;;;;;103.13;28.92;;;;;;;;;;5031752;28;20037;-39
2023/03/05 01:58:14;;;;;;;110.50;28.45;;;;;;;;;;5031470;28;20095;-39
2023/03/05 02:00:43;;;;;;;108.15;28.50;;;;;;;;;;5013685;28;20383;-39
2023/03/05 02:03:11;;;;;;;113.07;28.75;;;;;;;;;;5031622;28;20033;-39
2023/03/05 02:05:40;;;;;;;107.38;28.38;;;;;;;;;;5031280;28;20511;-39
2023/03/05 02:08:08;;;;;;;115.07;29.70;;;;;;;;;;5031202;28;20802;-39
2023/03/05 02:10:40;;;;;;;115.65;30.35;;;;;;;;;;5031432;28;20048;-39
2023/03/05 02:13:08;;;;;;;104.30;28.33;;;;;;;;;;5031224;28;20042;-39
2023/03/05 02:15:35;;;;;;;106.10;28.85;;;;;;;;;;5019048;28;20079;-40
2023/03/05 02:18:02;;;;;;;102.32;29.38;;;;;;;;;;5010823;28;20030;-40
2023/03/05 02:20:31;;;;;;;113.03;30.50;;;;;;;;;;5010868;28;20038;-40
2023/03/05 02:22:58;;;;;;;102.45;28.58;;;;;;;;;;5010787;28;20507;-40
2023/03/05 02:25:26;;;;;;;95.72;26.77;;;;;;;;;;5011255;28;20042;-40
2023/03/05 02:27:56;;;;;;;96.03;27.23;;;;;;;;;;5011404;28;20029;-40
2023/03/05 02:30:23;;;;;;;99.32;26.98;;;;;;;;;;5011288;28;20808;-40
2023/03/05 02:32:50;;;;;;;97.65;28.70;;;;;;;;;;5011099;28;20048;-40
2023/03/05 02:35:17;;;;;;;92.45;27.80;;;;;;;;;;5011447;28;20021;-40
2023/03/05 02:37:44;;;;;;;105.97;28.90;;;;;;;;;;5011151;28;20030;-40
2023/03/05 02:40:12;;;;;;;102.72;28.67;;;;;;;;;;5011400;28;20101;-40
2023/03/05 02:42:39;;;;;;;100.30;28.15;;;;;;;;;;5011359;28;20033;-40
2023/03/05 02:45:06;;;;;;;104.43;27.85;;;;;;;;;;5011169;28;20030;-40
2023/03/05 02:47:34;;;;;;;95.25;28.52;;;;;;;;;;5011252;28;20832;-40
2023/03/05 02:50:01;;;;;;;107.32;28.10;;;;;;;;;;5011208;28;20033;-41
2023/03/05 02:52:28;;;;;;;106.10;28.02;;;;;;;;;;5011299;28;20929;-40
2023/03/05 02:54:55;;;;;;;87.78;26.23;;;;;;;;;;5011032;28;20057;-40
2023/03/05 02:57:22;;;;;;;97.47;29.15;;;;;;;;;;5010826;28;20050;-40
2023/03/05 02:59:49;;;;;;;98.88;27.20;;;;;;;;;;5011045;28;20030;-40
2023/03/05 03:02:16;;;;;;;96.05;25.98;;;;;;;;;;5010846;28;20044;-40
2023/03/05 03:04:44;;;;;;;95.47;26.50;;;;;;;;;;5014782;28;20129;-40
2023/03/05 03:07:12;;;;;;;93.47;25.77;;;;;;;;;;5014934;28;20442;-40
2023/03/05 03:09:39;;;;;;;91.05;26.92;;;;;;;;;;5015134;28;20030;-40
2023/03/05 03:12:06;;;;;;;93.07;26.98;;;;;;;;;;5014953;28;20041;-40
2023/03/05 03:14:37;;;;;;;95.13;27.50;;;;;;;;;;5015023;28;20133;-40
2023/03/05 03:17:12;;;;;;;89.70;26.30;;;;;;;;;;5014654;28;20120;-40
2023/03/05 03:19:39;;;;;;;100.60;26.13;;;;;;;;;;5014933;28;20037;-40
2023/03/05 03:22:07;;;;;;;83.22;26.40;;;;;;;;;;5014749;28;20029;-40
2023/03/05 03:24:35;;;;;;;91.25;25.60;;;;;;;;;;5014798;28;20399;-40
2023/03/05 03:27:02;;;;;;;86.38;24.80;;;;;;;;;;5014627;28;20411;-40
2023/03/05 03:29:29;;;;;;;88.88;25.50;;;;;;;;;;5014766;28;20105;-40
2023/03/05 03:31:56;;;;;;;77.60;23.92;;;;;;;;;;5014790;28;20061;-40
2023/03/05 03:34:23;;;;;;;87.43;26.85;;;;;;;;;;5014670;28;20030;-40
2023/03/05 03:36:51;;;;;;;87.93;24.48;;;;;;;;;;5014544;28;20123;-41
2023/03/05 03:39:19;;;;;;;83.78;25.17;;;;;;;;;;5014477;28;20061;-40
2023/03/05 03:41:47;;;;;;;84.97;25.48;;;;;;;;;;5014633;28;20042;-40
2023/03/05 03:44:16;;;;;;;80.97;25.50;;;;;;;;;;5014445;28;20030;-40
2023/03/05 03:46:45;;;;;;;75.70;25.38;;;;;;;;;;5014271;28;20030;-40
2023/03/05 03:49:22;;;;;;;84.20;25.92;;;;;;;;;;5014040;28;20129;-40
2023/03/05 03:51:50;;;;;;;81.97;23.63;;;;;;;;;;5014248;28;20042;-40
2023/03/05 03:54:17;;;;;;;81.63;23.50;;;;;;;;;;5014288;28;20030;-40
2023/03/05 03:56:45;;;;;;;79.70;24.98;;;;;;;;;;5013968;28;20034;-40
2023/03/05 03:59:13;;;;;;;76.68;23.40;;;;;;;;;;5013738;28;20033;-39
2023/03/05 04:01:40;;;;;;;65.22;23.10;;;;;;;;;;5013528;28;20033;-37
2023/03/05 04:04:07;;;;;;;267.38;38.25;;;;;;;;;;5013994;28;20041;-37
2023/03/05 04:06:34;;;;;;;167.52;29.20;;;;;;;;;;5012867;28;20456;-38
2023/03/05 04:09:01;;;;;;;133.40;26.02;;;;;;;;;;5013721;28;20069;-37
2023/03/05 04:11:28;;;;;;;130.90;24.92;;;;;;;;;;5013466;28;20038;-38
2023/03/05 04:13:55;;;;;;;130.43;25.25;;;;;;;;;;5014084;28;20392;-38
2023/03/05 04:16:22;;;;;;;110.32;23.02;;;;;;;;;;4995114;28;20033;-38
2023/03/05 04:18:49;;;;;;;109.25;23.42;;;;;;;;;;5013372;28;20034;-38
2023/03/05 04:21:17;;;;;;;112.03;22.13;;;;;;;;;;5013487;28;20145;-39
2023/03/05 04:23:44;;;;;;;106.13;21.35;;;;;;;;;;5013383;28;20029;-38
2023/03/05 04:26:11;;;;;;;112.82;19.90;;;;;;;;;;5022980;28;20033;-38
2023/03/05 04:28:38;;;;;;;78.10;17.40;;;;;;;;;;5023807;28;20041;-38
2023/03/05 04:31:05;;;;;;;77.57;15.75;;;;;;;;;;5020957;28;20069;-38
2023/03/05 04:33:32;;;;;;;66.00;14.43;;;;;;;;;;5020910;28;20063;-38
2023/03/05 04:35:59;;;;;;;50.92;12.02;;;;;;;;;;5013999;28;20121;-38
2023/03/05 04:38:26;;;;;;;57.97;12.32;;;;;;;;;;5012914;28;20034;-38
2023/03/05 04:40:53;;;;;;;58.70;11.85;;;;;;;;;;5013255;28;20038;-38
2023/03/05 04:43:21;;;;;;;47.53;11.85;;;;;;;;;;5013246;28;20037;-38
2023/03/05 04:45:48;;;;;;;58.33;11.73;;;;;;;;;;5013161;28;20034;-38
2023/03/05 04:48:15;;;;;;;45.22;11.10;;;;;;;;;;5013212;28;20018;-38
2023/03/05 04:50:42;;;;;;;47.00;11.40;;;;;;;;;;5012999;28;20077;-38
2023/03/05 04:53:09;;;;;;;49.45;10.07;;;;;;;;;;5012971;28;20033;-38
2023/03/05 04:55:36;;;;;;;51.85;10.00;;;;;;;;;;5013085;28;20045;-38
2023/03/05 04:58:03;;;;;;;38.92;9.40;;;;;;;;;;5012741;28;20076;-38
2023/03/05 05:00:30;;;;;;;29.90;7.72;;;;;;;;;;5012959;28;20480;-38
2023/03/05 05:02:57;;;;;;;35.17;7.70;;;;;;;;;;5012967;28;20040;-38
2023/03/05 05:05:25;;;;;;;31.70;7.38;;;;;;;;;;5030154;28;20025;-38
2023/03/05 05:07:56;;;;;;;29.67;6.53;;;;;;;;;;5032219;28;20506;-38
2023/03/05 05:10:24;;;;;;;28.17;6.47;;;;;;;;;;5032522;28;20079;-38
2023/03/05 05:12:51;;;;;;;34.58;7.82;;;;;;;;;;5032464;28;20040;-38
2023/03/05 05:15:18;;;;;;;34.83;7.65;;;;;;;;;;5032568;28;20032;-38
2023/03/05 05:17:45;;;;;;;33.22;7.15;;;;;;;;;;5032355;28;20071;-38
2023/03/05 05:20:13;;;;;;;34.85;6.43;;;;;;;;;;5032291;28;20036;-38
2023/03/05 05:22:40;;;;;;;29.73;6.13;;;;;;;;;;5032396;28;20029;-38
2023/03/05 05:25:08;;;;;;;27.85;6.45;;;;;;;;;;5032127;28;20044;-38
2023/03/05 05:27:34;;;;;;;32.15;5.90;;;;;;;;;;5031580;28;20037;-38
2023/03/05 05:30:02;;;;;;;19.25;5.03;;;;;;;;;;5014278;28;20029;-38
2023/03/05 05:32:29;;;;;;;31.50;5.85;;;;;;;;;;5032242;28;20045;-38
2023/03/05 05:34:57;;;;;;;29.85;5.18;;;;;;;;;;5032153;28;20549;-38
2023/03/05 05:37:25;;;;;;;24.30;4.47;;;;;;;;;;5031836;28;20033;-38
2023/03/05 05:39:52;;;;;;;40.08;5.88;;;;;;;;;;5032058;28;20083;-38
2023/03/05 05:42:20;;;;;;;28.75;5.75;;;;;;;;;;5014106;28;20107;-38
2023/03/05 05:44:47;;;;;;;22.98;4.95;;;;;;;;;;5031931;28;20029;-38
2023/03/05 05:47:15;;;;;;;36.80;4.97;;;;;;;;;;5031862;28;20018;-38
2023/03/05 05:49:42;;;;;;;22.80;4.80;;;;;;;;;;5014179;28;20068;-38
2023/03/05 05:52:09;;;;;;;24.95;4.85;;;;;;;;;;5031573;28;20510;-38
2023/03/05 05:54:36;;;;;;;21.75;3.80;;;;;;;;;;5031779;28;20483;-38
2023/03/05 05:57:03;;;;;;;27.88;4.57;;;;;;;;;;5031480;28;20037;-38
2023/03/05 05:59:30;;;;;;;28.95;5.15;;;;;;;;;;5031512;28;20033;-38
2023/03/05 06:01:58;;;;;;;33.08;5.20;;;;;;;;;;5000793;28;20061;-38
2023/03/05 06:04:25;;;;;;;33.50;4.35;;;;;;;;;;5011944;28;20021;-38
2023/03/05 06:06:52;;;;;;;24.13;4.25;;;;;;;;;;5011580;28;20508;-38
2023/03/05 06:09:19;;;;;;;35.15;5.40;;;;;;;;;;5011771;28;20057;-38
2023/03/05 06:11:46;;;;;;;34.13;5.47;;;;;;;;;;5011740;28;20627;-38
2023/03/05 06:14:13;;;;;;;29.33;4.75;;;;;;;;;;5011582;28;20053;-38
2023/03/05 06:16:40;;;;;;;36.75;4.80;;;;;;;;;;5011612;28;20502;-38
2023/03/05 06:19:08;;;;;;;33.28;4.82;;;;;;;;;;5011378;28;20060;-38
2023/03/05 06:21:35;;;;;;;28.98;5.05;;;;;;;;;;5011546;28;20040;-38
2023/03/05 06:24:02;;;;;;;36.63;5.90;;;;;;;;;;5011557;28;20041;-38
2023/03/05 06:26:29;;;;;;;32.65;5.32;;;;;;;;;;5011455;28;20037;-38
2023/03/05 06:28:57;;;;;;;25.23;4.28;;;;;;;;;;5011391;28;20041;-38
2023/03/05 06:31:25;;;;;;;31.17;4.70;;;;;;;;;;5011182;28;20045;-38
2023/03/05 06:33:54;;;;;;;36.92;5.10;;;;;;;;;;5011471;28;20427;-38
2023/03/05 06:36:21;;;;;;;32.35;4.88;;;;;;;;;;5011390;28;20084;-38
2023/03/05 06:38:49;;;;;;;26.75;4.45;;;;;;;;;;5010564;28;20033;-38
2023/03/05 06:41:18;;;;;;;17.48;3.75;;;;;;;;;;5011165;28;20036;-38
2023/03/05 06:43:45;;;;;;;22.00;3.80;;;;;;;;;;5011295;28;20444;-38
2023/03/05 06:46:14;;;;;;;17.27;3.40;;;;;;;;;;5011184;28;20026;-38
2023/03/05 06:48:42;;;;;;;14.95;3.40;;;;;;;;;;5010947;28;20030;-38
2023/03/05 06:51:15;;;;;;;22.23;3.55;;;;;;;;;;5010981;28;20117;-38
2023/03/05 06:53:42;;;;;;;26.08;4.47;;;;;;;;;;5011189;28;20811;-38
2023/03/05 06:56:09;;;;;;;22.65;3.55;;;;;;;;;;5011116;28;20407;-38
2023/03/05 06:58:36;;;;;;;23.73;3.75;;;;;;;;;;5010763;28;20050;-38
2023/03/05 07:01:05;;;;;;;22.70;3.40;;;;;;;;;;5011072;28;20026;-38
2023/03/05 07:03:32;;;;;;;26.42;3.90;;;;;;;;;;5010961;28;20038;-38
2023/03/05 07:06:01;;;;;;;20.80;3.92;;;;;;;;;;5010672;28;20437;-38
2023/03/05 07:08:28;;;;;;;22.17;3.92;;;;;;;;;;5011075;28;20033;-38
2023/03/05 07:10:55;;;;;;;23.23;3.88;;;;;;;;;;5011038;28;20029;-38
2023/03/05 07:13:22;;;;;;;15.77;3.05;;;;;;;;;;5010967;28;20033;-38
2023/03/05 07:15:49;;;;;;;15.95;3.50;;;;;;;;;;5010970;28;20041;-38
2023/03/05 07:18:16;;;;;;;14.98;3.20;;;;;;;;;;5010971;28;20026;-38
2023/03/05 07:20:43;;;;;;;13.10;2.95;;;;;;;;;;5010971;28;20038;-38
2023/03/05 07:23:10;;;;;;;16.85;3.33;;;;;;;;;;5010894;28;20675;-38
2023/03/05 07:25:37;;;;;;;15.60;2.92;;;;;;;;;;5010710;28;20025;-38
2023/03/05 07:28:05;;;;;;;15.95;2.80;;;;;;;;;;5010975;28;20026;-38
2023/03/05 07:30:33;;;;;;;16.63;2.92;;;;;;;;;;5010601;28;20121;-38
2023/03/05 07:33:01;;;;;;;16.90;3.42;;;;;;;;;;5010823;28;20121;-38
2023/03/05 07:35:28;;;;;;;18.63;3.47;;;;;;;;;;5010644;28;20034;-38
2023/03/05 07:37:55;;;;;;;19.35;2.83;;;;;;;;;;5010583;28;20030;-38
2023/03/05 07:40:22;;;;;;;22.98;3.95;;;;;;;;;;5010654;28;20033;-38
2023/03/05 07:42:49;;;;;;;12.77;3.20;;;;;;;;;;5010709;28;20049;-38
2023/03/05 07:45:16;;;;;;;20.63;3.50;;;;;;;;;;5010820;28;20747;-38
2023/03/05 07:47:43;;;;;;;22.08;4.05;;;;;;;;;;5010461;28;20398;-38
2023/03/05 07:50:10;;;;;;;12.73;3.22;;;;;;;;;;5012802;28;20434;-38
2023/03/05 07:52:37;;;;;;;15.57;3.28;;;;;;;;;;5014081;28;20163;-38
2023/03/05 07:55:04;;;;;;;18.83;3.17;;;;;;;;;;4996702;28;20117;-38
2023/03/05 07:57:31;;;;;;;18.40;3.08;;;;;;;;;;5013812;28;20534;-38
2023/03/05 07:59:58;;;;;;;22.42;2.90;;;;;;;;;;5014086;28;20379;-38
2023/03/05 08:02:25;;;;;;;15.98;3.10;;;;;;;;;;5014148;28;20022;-38
2023/03/05 08:04:52;;;;;;;21.08;3.53;;;;;;;;;;5014163;28;20384;-38
2023/03/05 08:07:19;;;;;;;10.80;2.95;;;;;;;;;;5013957;28;20028;-38
2023/03/05 08:09:46;;;;;;;16.13;3.50;;;;;;;;;;5013844;28;20022;-38
2023/03/05 08:12:13;;;;;;;12.98;2.83;;;;;;;;;;5013914;28;20030;-38
2023/03/05 08:14:40;;;;;;;19.30;3.00;;;;;;;;;;5013946;28;20038;-38
2023/03/05 08:17:07;;;;;;;18.48;2.72;;;;;;;;;;5013956;28;20022;-38
2023/03/05 08:19:34;;;;;;;18.77;3.13;;;;;;;;;;5013905;28;20387;-38
2023/03/05 08:22:01;;;;;;;17.17;3.10;;;;;;;;;;5013720;28;20025;-38
2023/03/05 08:24:28;;;;;;;16.70;2.90;;;;;;;;;;5013592;28;20056;-38
2023/03/05 08:26:56;;;;;;;24.38;3.40;;;;;;;;;;5013540;28;20034;-38
2023/03/05 08:29:23;;;;;;;19.63;3.13;;;;;;;;;;5013718;28;20029;-38
2023/03/05 08:31:52;;;;;;;19.88;3.33;;;;;;;;;;5013568;28;20056;-38
2023/03/05 08:34:22;;;;;;;11.93;3.10;;;;;;;;;;5013212;28;20026;-38
2023/03/05 08:36:49;;;;;;;17.65;3.10;;;;;;;;;;5013551;28;20045;-38
2023/03/05 08:39:17;;;;;;;15.25;2.88;;;;;;;;;;5013466;28;20033;-38
2023/03/05 08:41:44;;;;;;;15.18;2.88;;;;;;;;;;5013606;28;20084;-38
2023/03/05 08:44:11;;;;;;;16.25;2.97;;;;;;;;;;5013427;28;20018;-38
2023/03/05 08:46:41;;;;;;;11.85;2.92;;;;;;;;;;5013137;28;20087;-38
2023/03/05 08:49:08;;;;;;;9.52;2.83;;;;;;;;;;5013419;28;20025;-38
2023/03/05 08:51:35;;;;;;;11.98;3.28;;;;;;;;;;5013192;28;20033;-38
2023/03/05 08:54:05;;;;;;;17.20;3.05;;;;;;;;;;5013313;28;20041;-38
2023/03/05 08:56:33;;;;;;;11.68;2.67;;;;;;;;;;5013060;28;20030;-38
2023/03/05 08:59:00;;;;;;;21.70;3.72;;;;;;;;;;5012833;28;20061;-38
2023/03/05 09:01:27;;;;;;;23.52;3.30;;;;;;;;;;5011931;28;20037;-38
2023/03/05 09:03:54;;;;;;;12.15;2.70;;;;;;;;;;5012974;28;20096;-38
2023/03/05 09:06:21;;;;;;;14.05;3.10;;;;;;;;;;5012890;28;20053;-38
2023/03/05 09:08:48;;;;;;;17.33;2.90;;;;;;;;;;5012879;28;20033;-38
2023/03/05 09:11:15;;;;;;;17.42;3.28;;;;;;;;;;5012636;28;20038;-38
2023/03/05 09:13:42;;;;;;;11.52;3.05;;;;;;;;;;5012737;28;20084;-38
2023/03/05 09:16:14;;;;;;;14.73;3.10;;;;;;;;;;5012693;28;20030;-38
2023/03/05 09:18:41;;;;;;;15.52;3.35;;;;;;;;;;5012771;28;20030;-38
2023/03/05 09:21:09;;;;;;;13.00;3.10;;;;;;;;;;4995078;28;20381;-38
2023/03/05 09:23:36;;;;;;;15.55;3.17;;;;;;;;;;5012681;28;20490;-38
2023/03/05 09:26:07;;;;;;;17.65;3.58;;;;;;;;;;4994704;28;20061;-38
2023/03/05 09:28:34;;;;;;;13.90;2.75;;;;;;;;;;5012548;28;20026;-38
2023/03/05 09:31:04;;;;;;;17.35;3.03;;;;;;;;;;5012357;28;20615;-38
2023/03/05 09:33:32;;;;;;;11.13;2.67;;;;;;;;;;5012439;28;20061;-38
2023/03/05 09:36:00;;;;;;;17.52;3.20;;;;;;;;;;5012394;28;20048;-38
2023/03/05 09:38:27;;;;;;;12.75;2.80;;;;;;;;;;5012382;28;20050;-38
2023/03/05 09:41:15;;;;;;;17.73;2.70;;;;;;;;;;5012356;28;20017;-38
2023/03/05 09:43:54;;;;;;;13.38;3.13;;;;;;;;;;4994631;28;20076;-38
2023/03/05 09:46:30;;;;;;;17.30;2.55;;;;;;;;;;5012200;28;20369;-38
2023/03/05 09:49:15;;;;;;;14.65;3.20;;;;;;;;;;5011969;28;20160;-38
2023/03/05 09:51:45;;;;;;;12.18;3.30;;;;;;;;;;5011963;28;20064;-38
2023/03/05 09:54:30;;;;;;;17.60;3.20;;;;;;;;;;5011901;28;20076;-38
2023/03/05 09:57:00;;;;;;;14.55;2.70;;;;;;;;;;5011677;28;20037;-38
2023/03/05 09:59:34;;;;;;;14.82;2.75;;;;;;;;;;5012046;28;20109;-38
2023/03/05 10:02:22;;;;;;;14.93;2.63;;;;;;;;;;5011800;28;20026;-38
2023/03/05 10:04:54;;;;;;;17.20;3.80;;;;;;;;;;5011872;28;20040;-38
2023/03/05 10:07:21;;;;;;;;;;;;;;;;;;5012183;28;20036;-38
2023/03/05 10:10:00;;;;;;;17.75;3.15;;;;;;;;;;5011890;28;19910;-38
2023/03/05 10:12:32;;;;;;;28.17;3.35;;;;;;;;;;5011681;28;20117;-38
2023/03/05 10:15:01;;;;;;;13.02;3.22;;;;;;;;;;5011686;28;20416;-38
2023/03/05 10:17:28;;;;;;;17.98;3.50;;;;;;;;;;5011474;28;20645;-38
2023/03/05 10:20:03;;;;;;;15.70;3.20;;;;;;;;;;5011676;28;20033;-38
2023/03/05 10:22:41;;;;;;;13.15;3.65;;;;;;;;;;5011672;28;20026;-38
2023/03/05 10:25:26;;;;;;;16.27;3.40;;;;;;;;;;5011630;28;20080;-38
2023/03/05 10:28:04;;;;;;;19.17;3.28;;;;;;;;;;5011505;28;20758;-38
2023/03/05 10:30:45;;;;;;;18.73;3.45;;;;;;;;;;5011518;28;20034;-38
2023/03/05 10:33:12;;;;;;;21.70;3.70;;;;;;;;;;5011291;28;20084;-38
2023/03/05 10:36:15;;;;;;;19.10;3.60;;;;;;;;;;5011289;28;20084;-38
2023/03/05 10:38:51;;;;;;;17.73;3.80;;;;;;;;;;4912500;29;20387;-38
2023/03/05 10:41:18;;;;;;;23.63;3.70;;;;;;;;;;4998451;28;20109;-38
2023/03/05 10:44:03;;;;;;;20.20;3.60;;;;;;;;;;5011383;28;20397;-38
2023/03/05 10:46:35;;;;;;;17.98;3.53;;;;;;;;;;5011185;28;20076;-38
2023/03/05 10:49:02;;;;;;;12.98;3.25;;;;;;;;;;5011261;28;20046;-38
2023/03/05 10:51:29;;;;;;;11.60;3.30;;;;;;;;;;5011036;28;20052;-38
2023/03/05 10:53:57;;;;;;;15.52;3.13;;;;;;;;;;4993330;28;20068;-38
2023/03/05 10:56:26;;;;;;;14.35;3.17;;;;;;;;;;5011157;28;20022;-38
2023/03/05 10:58:53;;;;;;;18.67;3.40;;;;;;;;;;5010918;28;20092;-38
2023/03/05 11:01:22;;;;;;;13.40;3.03;;;;;;;;;;5011044;28;20037;-38
2023/03/05 11:03:57;;;;;;;16.27;2.90;;;;;;;;;;5011076;28;20026;-38
2023/03/05 11:06:32;;;;;;;13.40;3.53;;;;;;;;;;5010928;28;20075;-38
2023/03/05 11:09:17;;;;;;;13.30;3.28;;;;;;;;;;5011164;28;20025;-38
2023/03/05 11:12:01;;;;;;;20.40;3.67;;;;;;;;;;5011081;28;20492;-38
2023/03/05 11:14:31;;;;;;;15.18;3.60;;;;;;;;;;5010981;28;20022;-38
2023/03/05 11:17:02;;;;;;;16.35;3.78;;;;;;;;;;5010743;28;20445;-38
2023/03/05 11:19:33;;;;;;;15.52;3.65;;;;;;;;;;5010994;28;20022;-38
2023/03/05 11:22:09;;;;;;;15.70;3.70;;;;;;;;;;5010951;28;20060;-38
2023/03/05 11:24:37;;;;;;;15.65;3.35;;;;;;;;;;5012751;28;20041;-39
2023/03/05 11:27:21;;;;;;;18.88;3.85;;;;;;;;;;5014645;28;20026;-38
2023/03/05 11:29:49;;;;;;;15.90;4.00;;;;;;;;;;5014679;28;20029;-38
2023/03/05 11:32:26;;;;;;;18.23;3.53;;;;;;;;;;5014707;28;20057;-38
2023/03/05 11:34:53;;;;;;;12.93;2.95;;;;;;;;;;5014663;28;20029;-38
2023/03/05 11:37:25;;;;;;;14.88;2.95;;;;;;;;;;5014513;28;20030;-38
2023/03/05 11:40:10;;;;;;;9.18;3.03;;;;;;;;;;5014674;28;20029;-38
2023/03/05 11:42:40;;;;;;;18.88;3.50;;;;;;;;;;5014672;28;20104;-38
2023/03/05 11:45:11;;;;;;;17.85;4.18;;;;;;;;;;5014368;28;20137;-39
2023/03/05 11:47:38;;;;;;;22.35;3.50;;;;;;;;;;5013435;28;20030;-38
2023/03/05 11:50:23;;;;;;;16.42;4.00;;;;;;;;;;5015730;28;20063;-38
2023/03/05 11:52:58;;;;;;;16.10;3.92;;;;;;;;;;5013986;28;20037;-38
2023/03/05 11:55:36;;;;;;;15.32;3.20;;;;;;;;;;5020449;28;20083;-38
2023/03/05 11:58:21;;;;;;;20.48;4.13;;;;;;;;;;5018795;28;20061;-37
2023/03/05 12:00:48;;;;;;;25.02;4.00;;;;;;;;;;5014041;28;20033;-38
2023/03/05 12:03:17;;;;;;;22.23;3.92;;;;;;;;;;5016568;28;20037;-38
2023/03/05 12:05:48;;;;;;;22.40;3.88;;;;;;;;;;5014108;28;20665;-38
2023/03/05 12:08:20;;;;;;;19.63;4.13;;;;;;;;;;5014044;28;20026;-38
2023/03/05 12:10:47;;;;;;;21.47;3.97;;;;;;;;;;5013858;28;20038;-38
2023/03/05 12:13:27;;;;;;;22.42;4.60;;;;;;;;;;5022471;28;20120;-37
2023/03/05 12:15:56;;;;;;;19.13;4.65;;;;;;;;;;5028301;28;20059;-38
2023/03/05 12:18:29;;;;;;;21.38;4.60;;;;;;;;;;5023555;28;20038;-38
2023/03/05 12:21:05;;;;;;;18.20;4.25;;;;;;;;;;5020716;28;20029;-38
2023/03/05 12:23:46;;;;;;;20.35;4.72;;;;;;;;;;5021876;28;20120;-38
2023/03/05 12:26:13;;;;;;;28.55;5.03;;;;;;;;;;5017907;28;20029;-38
2023/03/05 12:28:48;;;;;;;26.40;4.72;;;;;;;;;;4995517;28;20117;-38
2023/03/05 12:31:33;;;;;;;22.40;3.75;;;;;;;;;;5013154;28;20042;-38
2023/03/05 12:34:00;;;;;;;15.70;4.05;;;;;;;;;;5017189;28;20411;-37
2023/03/05 12:36:29;;;;;;;33.25;4.93;;;;;;;;;;5026695;28;20029;-38
2023/03/05 12:38:57;;;;;;;16.85;3.80;;;;;;;;;;5017928;28;20399;-37
2023/03/05 12:41:24;;;;;;;29.38;4.32;;;;;;;;;;5013113;28;20034;-37
2023/03/05 12:44:06;;;;;;;22.15;5.18;;;;;;;;;;5013300;28;20108;-37
2023/03/05 12:46:35;;;;;;;28.45;4.72;;;;;;;;;;5013344;28;20030;-37
2023/03/05 12:49:24;;;;;;;23.90;4.03;;;;;;;;;;5013260;28;20037;-37
2023/03/05 12:51:53;;;;;;;16.05;3.88;;;;;;;;;;4998377;28;20773;-37
2023/03/05 12:54:20;;;;;;;20.58;4.07;;;;;;;;;;5012777;28;20037;-37
2023/03/05 12:56:47;;;;;;;11.20;3.15;;;;;;;;;;5012854;28;20056;-37
2023/03/05 12:59:15;;;;;;;18.38;3.70;;;;;;;;;;5024121;28;20575;-37
2023/03/05 13:01:45;;;;;;;20.80;4.22;;;;;;;;;;5022965;28;20028;-37
2023/03/05 13:04:16;;;;;;;20.40;4.85;;;;;;;;;;5018266;28;20037;-36
2023/03/05 13:06:43;;;;;;;13.13;3.80;;;;;;;;;;5002817;28;20041;-37
2023/03/05 13:09:23;;;;;;;14.93;3.63;;;;;;;;;;5021774;28;20029;-37
2023/03/05 13:11:51;;;;;;;14.73;3.65;;;;;;;;;;5022213;28;20045;-38
2023/03/05 13:14:38;;;;;;;18.35;3.92;;;;;;;;;;5023954;28;20450;-38
2023/03/05 13:17:24;;;;;;;21.27;4.13;;;;;;;;;;5023159;28;20116;-38
2023/03/05 13:19:51;;;;;;;14.43;3.53;;;;;;;;;;5011874;28;20668;-38
2023/03/05 13:22:18;;;;;;;15.30;4.15;;;;;;;;;;5026109;28;20026;-38
2023/03/05 13:24:45;;;;;;;17.50;3.80;;;;;;;;;;5012326;28;20038;-37
2023/03/05 13:27:29;;;;;;;16.92;3.28;;;;;;;;;;5011838;28;20500;-38
2023/03/05 13:29:56;;;;;;;14.20;3.45;;;;;;;;;;5013452;28;20029;-38
2023/03/05 13:32:30;;;;;;;14.18;3.90;;;;;;;;;;5011900;28;20045;-37
2023/03/05 13:35:01;;;;;;;13.60;4.43;;;;;;;;;;5011897;28;20690;-37
2023/03/05 13:37:31;;;;;;;8.85;3.78;;;;;;;;;;5012071;28;20116;-37
2023/03/05 13:40:06;;;;;;;10.15;3.30;;;;;;;;;;5011906;28;20029;-38
2023/03/05 13:42:34;;;;;;;13.82;3.83;;;;;;;;;;5001286;28;20099;-37
2023/03/05 13:45:04;;;;;;;14.63;4.43;;;;;;;;;;5020299;28;20491;-38
2023/03/05 13:47:32;;;;;;;22.88;6.28;;;;;;;;;;5016061;28;20030;-38
2023/03/05 13:50:00;;;;;;;32.65;12.38;;;;;;;;;;5011640;28;20161;-38
2023/03/05 13:52:28;;;;;;;47.90;19.58;;;;;;;;;;5011712;28;20042;-38
2023/03/05 13:54:56;;;;;;;46.38;21.52;;;;;;;;;;5011506;28;20036;-37
2023/03/05 13:57:42;;;;;;;46.25;23.13;;;;;;;;;;5018837;28;20172;-38
2023/03/05 14:00:26;;;;;;;51.50;25.95;;;;;;;;;;5014048;28;20045;-37
2023/03/05 14:02:54;;;;;;;51.20;27.83;;;;;;;;;;5015980;28;20049;-37
2023/03/05 14:05:22;;;;;;;47.63;23.48;;;;;;;;;;5017575;28;20404;-38
2023/03/05 14:07:49;;;;;;;54.63;24.27;;;;;;;;;;5011539;28;20041;-37
2023/03/05 14:10:32;;;;;;;47.63;25.45;;;;;;;;;;5012632;28;20539;-38
2023/03/05 14:12:59;;;;;;;56.35;28.92;;;;;;;;;;5021967;28;20112;-37
2023/03/05 14:15:31;;;;;;;46.90;25.20;;;;;;;;;;5016002;28;20033;-39
2023/03/05 14:18:13;;;;;;;50.50;25.08;;;;;;;;;;5012482;28;20042;-39
2023/03/05 14:21:01;;;;;;;63.05;26.98;;;;;;;;;;5015213;28;20047;-38
2023/03/05 14:23:37;;;;;;;52.95;25.42;;;;;;;;;;5012543;28;20487;-39
2023/03/05 14:26:33;;;;;;;58.60;25.73;;;;;;;;;;5010780;28;20037;-39
2023/03/05 14:29:03;;;;;;;55.80;25.23;;;;;;;;;;4994734;28;20128;-39
2023/03/05 14:31:31;;;;;;;43.08;22.30;;;;;;;;;;5010973;28;20091;-37
2023/03/05 14:34:06;;;;;;;44.65;20.17;;;;;;;;;;5011018;28;20065;-38
2023/03/05 14:36:34;;;;;;;41.20;16.58;;;;;;;;;;5014965;28;20029;-39